Terminal Aerodrome Forecast
Issued by NWS

Current Version | Previous Version | Graphics & Text | Print | Product List | Glossary On
Versions: 1 2 3 4 5 6 7 8 9 10 11 12 13 14 15 16 17 18 19 20 21
000
FTUS41 KRNK 170427 AAB
TAFLWB
TAF AMD
KLWB 170427Z 1704/1724 00000KT 1/2SM FG OVC002
     FM170900 00000KT 3SM -SHRA BR OVC008
     FM171300 VRB03KT 4SM SHRA BR OVC008 WS020/23035KT
     FM171700 22007KT 6SM -SHRA BR OVC015=

USA.gov is the U.S. government's official web portal to all federal, state and local government web resources and services.